sensor_id;sensor_type;location;lat;lon;timestamp;temperature;humidity
19781;DHT22;10050;55.492;13.506;2023-06-10T00:00:56;12.80;99.90
19781;DHT22;10050;55.492;13.506;2023-06-10T00:03:21;12.80;99.90
19781;DHT22;10050;55.492;13.506;2023-06-10T00:05:49;12.80;99.90
19781;DHT22;10050;55.492;13.506;2023-06-10T00:08:18;12.80;99.90
19781;DHT22;10050;55.492;13.506;2023-06-10T00:10:45;12.70;99.90
19781;DHT22;10050;55.492;13.506;2023-06-10T00:13:10;12.80;99.90
19781;DHT22;10050;55.492;13.506;2023-06-10T00:15:40;12.70;99.90
19781;DHT22;10050;55.492;13.506;2023-06-10T00:18:06;12.70;99.90
19781;DHT22;10050;55.492;13.506;2023-06-10T00:20:35;12.70;99.90
19781;DHT22;10050;55.492;13.506;2023-06-10T00:23:03;12.70;99.90
19781;DHT22;10050;55.492;13.506;2023-06-10T00:25:28;12.70;99.90
19781;DHT22;10050;55.492;13.506;2023-06-10T00:27:55;12.70;99.90
19781;DHT22;10050;55.492;13.506;2023-06-10T00:30:21;12.60;99.90
19781;DHT22;10050;55.492;13.506;2023-06-10T00:32:47;12.60;99.90
19781;DHT22;10050;55.492;13.506;2023-06-10T00:35:12;12.60;99.90
19781;DHT22;10050;55.492;13.506;2023-06-10T00:37:38;12.60;99.90
19781;DHT22;10050;55.492;13.506;2023-06-10T00:40:04;12.50;99.90
19781;DHT22;10050;55.492;13.506;2023-06-10T00:42:30;12.50;99.90
19781;DHT22;10050;55.492;13.506;2023-06-10T00:44:56;12.50;99.90
19781;DHT22;10050;55.492;13.506;2023-06-10T00:47:21;12.50;99.90
19781;DHT22;10050;55.492;13.506;2023-06-10T00:49:49;12.50;99.90
19781;DHT22;10050;55.492;13.506;2023-06-10T00:52:17;12.50;99.90
19781;DHT22;10050;55.492;13.506;2023-06-10T00:54:45;12.50;99.90
19781;DHT22;10050;55.492;13.506;2023-06-10T00:57:12;12.50;99.90
19781;DHT22;10050;55.492;13.506;2023-06-10T00:59:40;12.40;99.90
19781;DHT22;10050;55.492;13.506;2023-06-10T01:02:06;12.40;99.90
19781;DHT22;10050;55.492;13.506;2023-06-10T01:04:33;12.40;99.90
19781;DHT22;10050;55.492;13.506;2023-06-10T01:07:07;12.40;99.90
19781;DHT22;10050;55.492;13.506;2023-06-10T01:10:02;12.40;99.90
19781;DHT22;10050;55.492;13.506;2023-06-10T01:15:31;12.30;99.90
19781;DHT22;10050;55.492;13.506;2023-06-10T01:20:25;12.30;99.90
19781;DHT22;10050;55.492;13.506;2023-06-10T01:22:53;12.30;99.90
19781;DHT22;10050;55.492;13.506;2023-06-10T01:25:21;12.30;99.90
19781;DHT22;10050;55.492;13.506;2023-06-10T01:27:59;12.20;99.90
19781;DHT22;10050;55.492;13.506;2023-06-10T01:30:33;12.30;99.90
19781;DHT22;10050;55.492;13.506;2023-06-10T01:33:04;12.30;99.90
19781;DHT22;10050;55.492;13.506;2023-06-10T01:35:33;12.30;99.90
19781;DHT22;10050;55.492;13.506;2023-06-10T01:38:01;12.20;99.90
19781;DHT22;10050;55.492;13.506;2023-06-10T01:40:28;12.20;99.90
19781;DHT22;10050;55.492;13.506;2023-06-10T01:42:54;12.20;99.90
19781;DHT22;10050;55.492;13.506;2023-06-10T01:45:20;12.20;99.90
19781;DHT22;10050;55.492;13.506;2023-06-10T01:47:46;12.20;99.90
19781;DHT22;10050;55.492;13.506;2023-06-10T01:50:11;12.20;99.90
19781;DHT22;10050;55.492;13.506;2023-06-10T01:52:37;12.20;99.90
19781;DHT22;10050;55.492;13.506;2023-06-10T01:55:04;12.10;99.90
19781;DHT22;10050;55.492;13.506;2023-06-10T01:57:30;12.20;99.90
19781;DHT22;10050;55.492;13.506;2023-06-10T01:59:55;12.10;99.90
19781;DHT22;10050;55.492;13.506;2023-06-10T02:02:21;12.10;99.90
19781;DHT22;10050;55.492;13.506;2023-06-10T02:04:47;12.10;99.90
19781;DHT22;10050;55.492;13.506;2023-06-10T02:07:13;12.10;99.90
19781;DHT22;10050;55.492;13.506;2023-06-10T02:09:39;12.10;99.90
19781;DHT22;10050;55.492;13.506;2023-06-10T02:12:05;12.10;99.90
19781;DHT22;10050;55.492;13.506;2023-06-10T02:14:32;12.10;99.90
19781;DHT22;10050;55.492;13.506;2023-06-10T02:16:58;12.10;99.90
19781;DHT22;10050;55.492;13.506;2023-06-10T02:19:24;12.10;99.90
19781;DHT22;10050;55.492;13.506;2023-06-10T02:21:52;12.00;99.90
19781;DHT22;10050;55.492;13.506;2023-06-10T02:24:18;12.00;99.90
19781;DHT22;10050;55.492;13.506;2023-06-10T02:26:43;12.00;99.90
19781;DHT22;10050;55.492;13.506;2023-06-10T02:29:09;12.00;99.90
19781;DHT22;10050;55.492;13.506;2023-06-10T02:31:35;12.00;99.90
19781;DHT22;10050;55.492;13.506;2023-06-10T02:34:01;12.00;99.90
19781;DHT22;10050;55.492;13.506;2023-06-10T02:36:27;12.00;99.90
19781;DHT22;10050;55.492;13.506;2023-06-10T02:38:53;12.00;99.90
19781;DHT22;10050;55.492;13.506;2023-06-10T02:41:19;12.00;99.90
19781;DHT22;10050;55.492;13.506;2023-06-10T02:43:44;12.00;99.90
19781;DHT22;10050;55.492;13.506;2023-06-10T02:46:10;12.00;99.90
19781;DHT22;10050;55.492;13.506;2023-06-10T02:48:42;12.00;99.90
19781;DHT22;10050;55.492;13.506;2023-06-10T02:51:11;12.00;99.90
19781;DHT22;10050;55.492;13.506;2023-06-10T02:53:37;12.00;99.90
19781;DHT22;10050;55.492;13.506;2023-06-10T02:56:03;12.00;99.90
19781;DHT22;10050;55.492;13.506;2023-06-10T02:58:29;12.00;99.90
19781;DHT22;10050;55.492;13.506;2023-06-10T03:00:54;12.00;99.90
19781;DHT22;10050;55.492;13.506;2023-06-10T03:03:20;12.00;99.90
19781;DHT22;10050;55.492;13.506;2023-06-10T03:05:48;12.00;99.90
19781;DHT22;10050;55.492;13.506;2023-06-10T03:08:13;12.00;99.90
19781;DHT22;10050;55.492;13.506;2023-06-10T03:10:39;12.00;99.90
19781;DHT22;10050;55.492;13.506;2023-06-10T03:13:05;12.00;99.90
19781;DHT22;10050;55.492;13.506;2023-06-10T03:15:30;12.00;99.90
19781;DHT22;10050;55.492;13.506;2023-06-10T03:17:59;12.00;99.90
19781;DHT22;10050;55.492;13.506;2023-06-10T03:20:25;12.00;99.90
19781;DHT22;10050;55.492;13.506;2023-06-10T03:22:53;12.10;99.90
19781;DHT22;10050;55.492;13.506;2023-06-10T03:25:18;12.10;99.90
19781;DHT22;10050;55.492;13.506;2023-06-10T03:27:46;12.10;99.90
19781;DHT22;10050;55.492;13.506;2023-06-10T03:30:13;12.10;99.90
19781;DHT22;10050;55.492;13.506;2023-06-10T03:32:39;12.10;99.90
19781;DHT22;10050;55.492;13.506;2023-06-10T03:35:06;12.10;99.90
19781;DHT22;10050;55.492;13.506;2023-06-10T03:37:32;12.20;99.90
19781;DHT22;10050;55.492;13.506;2023-06-10T03:39:58;12.20;99.90
19781;DHT22;10050;55.492;13.506;2023-06-10T03:42:23;12.20;99.90
19781;DHT22;10050;55.492;13.506;2023-06-10T03:44:49;12.20;99.90
19781;DHT22;10050;55.492;13.506;2023-06-10T03:47:15;12.20;99.90
19781;DHT22;10050;55.492;13.506;2023-06-10T03:49:41;12.30;99.90
19781;DHT22;10050;55.492;13.506;2023-06-10T03:52:07;12.30;99.90
19781;DHT22;10050;55.492;13.506;2023-06-10T03:54:32;12.40;99.90
19781;DHT22;10050;55.492;13.506;2023-06-10T03:57:00;12.40;99.90
19781;DHT22;10050;55.492;13.506;2023-06-10T03:59:26;12.40;99.90
19781;DHT22;10050;55.492;13.506;2023-06-10T04:01:51;12.40;99.90
19781;DHT22;10050;55.492;13.506;2023-06-10T04:04:17;12.40;99.90
19781;DHT22;10050;55.492;13.506;2023-06-10T04:06:43;12.50;99.90
19781;DHT22;10050;55.492;13.506;2023-06-10T04:09:11;12.50;99.90
19781;DHT22;10050;55.492;13.506;2023-06-10T04:11:38;12.50;99.90
19781;DHT22;10050;55.492;13.506;2023-06-10T04:14:03;12.60;99.90
19781;DHT22;10050;55.492;13.506;2023-06-10T04:16:29;12.70;99.90
19781;DHT22;10050;55.492;13.506;2023-06-10T04:18:54;12.70;99.90
19781;DHT22;10050;55.492;13.506;2023-06-10T04:21:21;12.70;99.90
19781;DHT22;10050;55.492;13.506;2023-06-10T04:23:47;12.80;99.90
19781;DHT22;10050;55.492;13.506;2023-06-10T04:26:13;12.80;99.90
19781;DHT22;10050;55.492;13.506;2023-06-10T04:28:38;12.90;99.90
19781;DHT22;10050;55.492;13.506;2023-06-10T04:31:04;12.90;99.90
19781;DHT22;10050;55.492;13.506;2023-06-10T04:33:33;12.90;99.90
19781;DHT22;10050;55.492;13.506;2023-06-10T04:35:58;13.00;99.90
19781;DHT22;10050;55.492;13.506;2023-06-10T04:38:24;13.10;99.90
19781;DHT22;10050;55.492;13.506;2023-06-10T04:40:49;13.20;99.90
19781;DHT22;10050;55.492;13.506;2023-06-10T04:43:15;13.20;99.90
19781;DHT22;10050;55.492;13.506;2023-06-10T04:45:41;13.30;99.90
19781;DHT22;10050;55.492;13.506;2023-06-10T04:48:10;13.40;99.90
19781;DHT22;10050;55.492;13.506;2023-06-10T04:50:36;13.40;99.90
19781;DHT22;10050;55.492;13.506;2023-06-10T04:53:02;13.50;99.90
19781;DHT22;10050;55.492;13.506;2023-06-10T04:55:28;13.60;99.90
19781;DHT22;10050;55.492;13.506;2023-06-10T04:57:54;13.70;99.90
19781;DHT22;10050;55.492;13.506;2023-06-10T05:00:20;13.80;99.90
19781;DHT22;10050;55.492;13.506;2023-06-10T05:02:45;13.80;99.90
19781;DHT22;10050;55.492;13.506;2023-06-10T05:05:16;13.90;99.90
19781;DHT22;10050;55.492;13.506;2023-06-10T05:07:41;14.00;99.90
19781;DHT22;10050;55.492;13.506;2023-06-10T05:10:07;14.20;99.90
19781;DHT22;10050;55.492;13.506;2023-06-10T05:12:33;14.30;99.90
19781;DHT22;10050;55.492;13.506;2023-06-10T05:14:58;14.30;99.90
19781;DHT22;10050;55.492;13.506;2023-06-10T05:17:24;14.40;99.90
19781;DHT22;10050;55.492;13.506;2023-06-10T05:19:50;14.50;99.90
19781;DHT22;10050;55.492;13.506;2023-06-10T05:22:16;14.60;99.90
19781;DHT22;10050;55.492;13.506;2023-06-10T05:24:44;14.60;99.90
19781;DHT22;10050;55.492;13.506;2023-06-10T05:27:10;14.70;99.90
19781;DHT22;10050;55.492;13.506;2023-06-10T05:29:35;14.80;99.90
19781;DHT22;10050;55.492;13.506;2023-06-10T05:32:01;14.90;99.90
19781;DHT22;10050;55.492;13.506;2023-06-10T05:34:31;15.00;99.90
19781;DHT22;10050;55.492;13.506;2023-06-10T05:36:57;15.20;99.90
19781;DHT22;10050;55.492;13.506;2023-06-10T05:39:23;15.30;99.90
19781;DHT22;10050;55.492;13.506;2023-06-10T05:41:49;15.30;99.90
19781;DHT22;10050;55.492;13.506;2023-06-10T05:44:14;15.40;99.90
19781;DHT22;10050;55.492;13.506;2023-06-10T05:46:40;15.40;99.90
19781;DHT22;10050;55.492;13.506;2023-06-10T05:49:06;15.60;99.90
19781;DHT22;10050;55.492;13.506;2023-06-10T05:51:31;15.70;99.90
19781;DHT22;10050;55.492;13.506;2023-06-10T05:53:57;15.80;99.90
19781;DHT22;10050;55.492;13.506;2023-06-10T05:56:23;15.90;99.90
19781;DHT22;10050;55.492;13.506;2023-06-10T05:58:49;16.10;99.90
19781;DHT22;10050;55.492;13.506;2023-06-10T06:01:15;16.10;99.90
19781;DHT22;10050;55.492;13.506;2023-06-10T06:03:41;16.20;99.90
19781;DHT22;10050;55.492;13.506;2023-06-10T06:06:06;16.30;99.90
19781;DHT22;10050;55.492;13.506;2023-06-10T06:08:35;16.40;99.90
19781;DHT22;10050;55.492;13.506;2023-06-10T06:11:01;16.50;99.90
19781;DHT22;10050;55.492;13.506;2023-06-10T06:13:27;16.60;99.90
19781;DHT22;10050;55.492;13.506;2023-06-10T06:15:52;16.70;99.90
19781;DHT22;10050;55.492;13.506;2023-06-10T06:18:18;16.80;99.90
19781;DHT22;10050;55.492;13.506;2023-06-10T06:20:44;16.90;99.90
19781;DHT22;10050;55.492;13.506;2023-06-10T06:23:10;16.90;99.90
19781;DHT22;10050;55.492;13.506;2023-06-10T06:25:36;17.10;99.90
19781;DHT22;10050;55.492;13.506;2023-06-10T06:28:07;17.20;99.90
19781;DHT22;10050;55.492;13.506;2023-06-10T06:30:34;17.20;99.90
19781;DHT22;10050;55.492;13.506;2023-06-10T06:33:00;17.40;99.90
19781;DHT22;10050;55.492;13.506;2023-06-10T06:35:26;17.50;99.90
19781;DHT22;10050;55.492;13.506;2023-06-10T06:37:51;17.70;99.90
19781;DHT22;10050;55.492;13.506;2023-06-10T06:40:17;17.70;99.90
19781;DHT22;10050;55.492;13.506;2023-06-10T06:42:43;18.00;99.90
19781;DHT22;10050;55.492;13.506;2023-06-10T06:45:09;18.10;99.90
19781;DHT22;10050;55.492;13.506;2023-06-10T06:47:34;18.10;99.90
19781;DHT22;10050;55.492;13.506;2023-06-10T06:50:00;18.20;99.90
19781;DHT22;10050;55.492;13.506;2023-06-10T06:52:26;18.50;99.90
19781;DHT22;10050;55.492;13.506;2023-06-10T06:54:51;18.70;99.90
19781;DHT22;10050;55.492;13.506;2023-06-10T06:57:17;18.70;99.90
19781;DHT22;10050;55.492;13.506;2023-06-10T06:59:42;18.90;99.90
19781;DHT22;10050;55.492;13.506;2023-06-10T07:02:08;18.70;99.90
19781;DHT22;10050;55.492;13.506;2023-06-10T07:04:34;18.90;99.90
19781;DHT22;10050;55.492;13.506;2023-06-10T07:07:00;19.00;99.90
19781;DHT22;10050;55.492;13.506;2023-06-10T07:09:25;19.30;99.90
19781;DHT22;10050;55.492;13.506;2023-06-10T07:11:51;19.50;99.90
19781;DHT22;10050;55.492;13.506;2023-06-10T07:14:17;19.60;99.90
19781;DHT22;10050;55.492;13.506;2023-06-10T07:16:42;19.80;99.90
19781;DHT22;10050;55.492;13.506;2023-06-10T07:19:10;20.00;99.90
19781;DHT22;10050;55.492;13.506;2023-06-10T07:21:36;20.30;99.90
19781;DHT22;10050;55.492;13.506;2023-06-10T07:24:02;20.50;99.90
19781;DHT22;10050;55.492;13.506;2023-06-10T07:26:27;20.50;99.90
19781;DHT22;10050;55.492;13.506;2023-06-10T07:28:53;20.50;99.90
19781;DHT22;10050;55.492;13.506;2023-06-10T07:31:19;20.40;99.90
19781;DHT22;10050;55.492;13.506;2023-06-10T07:33:45;20.50;99.90
19781;DHT22;10050;55.492;13.506;2023-06-10T07:36:11;20.60;99.90
19781;DHT22;10050;55.492;13.506;2023-06-10T07:38:37;20.80;99.90
19781;DHT22;10050;55.492;13.506;2023-06-10T07:41:06;21.10;99.90
19781;DHT22;10050;55.492;13.506;2023-06-10T07:43:31;21.50;99.90
19781;DHT22;10050;55.492;13.506;2023-06-10T07:45:57;21.20;99.90
19781;DHT22;10050;55.492;13.506;2023-06-10T07:48:22;21.20;99.90
19781;DHT22;10050;55.492;13.506;2023-06-10T07:50:48;21.60;99.90
19781;DHT22;10050;55.492;13.506;2023-06-10T07:53:13;21.60;99.90
19781;DHT22;10050;55.492;13.506;2023-06-10T07:55:39;21.50;99.90
19781;DHT22;10050;55.492;13.506;2023-06-10T07:58:05;21.60;99.90
19781;DHT22;10050;55.492;13.506;2023-06-10T08:00:33;21.60;99.90
19781;DHT22;10050;55.492;13.506;2023-06-10T08:02:58;21.60;99.90
19781;DHT22;10050;55.492;13.506;2023-06-10T08:05:24;21.70;99.90
19781;DHT22;10050;55.492;13.506;2023-06-10T08:07:50;21.40;99.90
19781;DHT22;10050;55.492;13.506;2023-06-10T08:10:15;21.60;99.90
19781;DHT22;10050;55.492;13.506;2023-06-10T08:12:41;21.70;99.90
19781;DHT22;10050;55.492;13.506;2023-06-10T08:15:07;21.90;99.90
19781;DHT22;10050;55.492;13.506;2023-06-10T08:17:33;22.00;99.90
19781;DHT22;10050;55.492;13.506;2023-06-10T08:19:58;21.90;99.90
19781;DHT22;10050;55.492;13.506;2023-06-10T08:22:24;21.90;99.90
19781;DHT22;10050;55.492;13.506;2023-06-10T08:24:50;21.80;99.90
19781;DHT22;10050;55.492;13.506;2023-06-10T08:27:15;21.50;99.90
19781;DHT22;10050;55.492;13.506;2023-06-10T08:29:41;21.40;99.90
19781;DHT22;10050;55.492;13.506;2023-06-10T08:32:07;21.70;99.90
19781;DHT22;10050;55.492;13.506;2023-06-10T08:34:34;21.60;99.90
19781;DHT22;10050;55.492;13.506;2023-06-10T08:37:01;21.80;99.90
19781;DHT22;10050;55.492;13.506;2023-06-10T08:39:26;21.80;99.90
19781;DHT22;10050;55.492;13.506;2023-06-10T08:42:23;22.00;99.90
19781;DHT22;10050;55.492;13.506;2023-06-10T08:45:01;22.10;99.90
19781;DHT22;10050;55.492;13.506;2023-06-10T08:47:33;22.30;99.90
19781;DHT22;10050;55.492;13.506;2023-06-10T08:50:04;22.10;99.90
19781;DHT22;10050;55.492;13.506;2023-06-10T08:52:35;22.40;99.90
19781;DHT22;10050;55.492;13.506;2023-06-10T08:55:13;22.60;99.90
19781;DHT22;10050;55.492;13.506;2023-06-10T08:57:43;23.00;99.90
19781;DHT22;10050;55.492;13.506;2023-06-10T09:00:12;23.00;99.90
19781;DHT22;10050;55.492;13.506;2023-06-10T09:02:41;22.90;99.90
19781;DHT22;10050;55.492;13.506;2023-06-10T09:05:09;23.00;99.90
19781;DHT22;10050;55.492;13.506;2023-06-10T09:07:35;23.10;99.90
19781;DHT22;10050;55.492;13.506;2023-06-10T09:10:02;23.00;99.90
19781;DHT22;10050;55.492;13.506;2023-06-10T09:12:33;22.80;99.90
19781;DHT22;10050;55.492;13.506;2023-06-10T09:14:59;22.80;99.90
19781;DHT22;10050;55.492;13.506;2023-06-10T09:17:25;22.80;99.90
19781;DHT22;10050;55.492;13.506;2023-06-10T09:19:52;23.00;99.90
19781;DHT22;10050;55.492;13.506;2023-06-10T09:22:21;23.20;99.90
19781;DHT22;10050;55.492;13.506;2023-06-10T09:24:47;23.10;99.90
19781;DHT22;10050;55.492;13.506;2023-06-10T09:27:13;23.40;99.90
19781;DHT22;10050;55.492;13.506;2023-06-10T09:29:52;22.80;99.90
19781;DHT22;10050;55.492;13.506;2023-06-10T09:32:21;22.60;99.90
19781;DHT22;10050;55.492;13.506;2023-06-10T09:34:47;22.60;99.90
19781;DHT22;10050;55.492;13.506;2023-06-10T09:37:23;22.70;99.90
19781;DHT22;10050;55.492;13.506;2023-06-10T09:40:06;22.60;99.90
19781;DHT22;10050;55.492;13.506;2023-06-10T09:42:37;22.20;99.90
19781;DHT22;10050;55.492;13.506;2023-06-10T09:45:04;22.40;99.90
19781;DHT22;10050;55.492;13.506;2023-06-10T09:47:30;22.20;99.90
19781;DHT22;10050;55.492;13.506;2023-06-10T09:49:56;22.40;99.90
19781;DHT22;10050;55.492;13.506;2023-06-10T09:52:26;22.60;99.90
19781;DHT22;10050;55.492;13.506;2023-06-10T09:54:53;22.80;99.90
19781;DHT22;10050;55.492;13.506;2023-06-10T09:57:21;23.00;99.90
19781;DHT22;10050;55.492;13.506;2023-06-10T09:59:47;22.80;99.90
19781;DHT22;10050;55.492;13.506;2023-06-10T10:02:16;23.00;99.90
19781;DHT22;10050;55.492;13.506;2023-06-10T10:04:45;23.00;99.90
19781;DHT22;10050;55.492;13.506;2023-06-10T10:07:11;23.30;99.90
19781;DHT22;10050;55.492;13.506;2023-06-10T10:09:37;23.10;99.90
19781;DHT22;10050;55.492;13.506;2023-06-10T10:12:12;23.00;99.90
19781;DHT22;10050;55.492;13.506;2023-06-10T10:14:38;23.10;99.90
19781;DHT22;10050;55.492;13.506;2023-06-10T10:17:11;23.00;99.90
19781;DHT22;10050;55.492;13.506;2023-06-10T10:19:44;23.50;99.90
19781;DHT22;10050;55.492;13.506;2023-06-10T10:22:19;23.60;99.90
19781;DHT22;10050;55.492;13.506;2023-06-10T10:24:55;23.50;99.90
19781;DHT22;10050;55.492;13.506;2023-06-10T10:27:35;23.30;99.90
19781;DHT22;10050;55.492;13.506;2023-06-10T10:30:02;23.30;99.90
19781;DHT22;10050;55.492;13.506;2023-06-10T10:32:35;23.00;99.90
19781;DHT22;10050;55.492;13.506;2023-06-10T10:35:12;22.90;99.90
19781;DHT22;10050;55.492;13.506;2023-06-10T10:37:38;22.80;99.90
19781;DHT22;10050;55.492;13.506;2023-06-10T10:40:05;22.80;99.90
19781;DHT22;10050;55.492;13.506;2023-06-10T10:42:32;23.00;99.90
19781;DHT22;10050;55.492;13.506;2023-06-10T10:44:58;23.30;99.90
19781;DHT22;10050;55.492;13.506;2023-06-10T10:47:27;23.30;99.90
19781;DHT22;10050;55.492;13.506;2023-06-10T10:49:56;23.30;99.90
19781;DHT22;10050;55.492;13.506;2023-06-10T10:52:25;23.00;99.90
19781;DHT22;10050;55.492;13.506;2023-06-10T10:54:53;22.70;99.90
19781;DHT22;10050;55.492;13.506;2023-06-10T10:57:20;22.80;99.90
19781;DHT22;10050;55.492;13.506;2023-06-10T11:02:44;22.80;99.90
19781;DHT22;10050;55.492;13.506;2023-06-10T11:05:13;22.80;99.90
19781;DHT22;10050;55.492;13.506;2023-06-10T11:07:39;22.40;99.90
19781;DHT22;10050;55.492;13.506;2023-06-10T11:10:10;22.20;99.90
19781;DHT22;10050;55.492;13.506;2023-06-10T11:15:27;22.30;99.90
19781;DHT22;10050;55.492;13.506;2023-06-10T11:33:53;21.90;99.90
19781;DHT22;10050;55.492;13.506;2023-06-10T11:36:19;22.00;99.90
19781;DHT22;10050;55.492;13.506;2023-06-10T11:38:45;22.20;99.90
19781;DHT22;10050;55.492;13.506;2023-06-10T11:41:14;22.10;99.90
19781;DHT22;10050;55.492;13.506;2023-06-10T11:43:43;22.10;99.90
19781;DHT22;10050;55.492;13.506;2023-06-10T11:46:13;21.70;99.90
19781;DHT22;10050;55.492;13.506;2023-06-10T11:48:39;21.70;99.90
19781;DHT22;10050;55.492;13.506;2023-06-10T11:51:13;21.60;99.90
19781;DHT22;10050;55.492;13.506;2023-06-10T11:53:38;21.50;99.90
19781;DHT22;10050;55.492;13.506;2023-06-10T11:56:04;21.50;99.90
19781;DHT22;10050;55.492;13.506;2023-06-10T11:58:30;21.70;99.90
19781;DHT22;10050;55.492;13.506;2023-06-10T12:00:56;21.70;99.90
19781;DHT22;10050;55.492;13.506;2023-06-10T12:03:27;21.60;99.90
19781;DHT22;10050;55.492;13.506;2023-06-10T12:06:05;21.50;99.90
19781;DHT22;10050;55.492;13.506;2023-06-10T12:08:31;21.70;99.90
19781;DHT22;10050;55.492;13.506;2023-06-10T12:10:57;21.80;99.90
19781;DHT22;10050;55.492;13.506;2023-06-10T12:13:25;21.80;99.90
19781;DHT22;10050;55.492;13.506;2023-06-10T12:15:51;21.70;99.90
19781;DHT22;10050;55.492;13.506;2023-06-10T12:18:21;21.80;99.90
19781;DHT22;10050;55.492;13.506;2023-06-10T12:20:47;21.80;99.90
19781;DHT22;10050;55.492;13.506;2023-06-10T12:23:14;21.70;99.90
19781;DHT22;10050;55.492;13.506;2023-06-10T12:25:50;21.90;99.90
19781;DHT22;10050;55.492;13.506;2023-06-10T12:28:17;21.90;99.90
19781;DHT22;10050;55.492;13.506;2023-06-10T12:30:45;21.70;99.90
19781;DHT22;10050;55.492;13.506;2023-06-10T12:33:21;21.90;99.90
19781;DHT22;10050;55.492;13.506;2023-06-10T12:35:57;21.90;99.90
19781;DHT22;10050;55.492;13.506;2023-06-10T12:38:25;21.90;99.90
19781;DHT22;10050;55.492;13.506;2023-06-10T12:40:53;21.80;99.90
19781;DHT22;10050;55.492;13.506;2023-06-10T12:43:23;21.90;99.90
19781;DHT22;10050;55.492;13.506;2023-06-10T12:45:49;22.00;99.90
19781;DHT22;10050;55.492;13.506;2023-06-10T12:48:22;22.20;99.90
19781;DHT22;10050;55.492;13.506;2023-06-10T12:50:52;22.10;99.90
19781;DHT22;10050;55.492;13.506;2023-06-10T12:53:19;22.10;99.90
19781;DHT22;10050;55.492;13.506;2023-06-10T12:55:45;22.10;99.90
19781;DHT22;10050;55.492;13.506;2023-06-10T12:58:11;22.10;99.90
19781;DHT22;10050;55.492;13.506;2023-06-10T13:00:37;22.00;99.90
19781;DHT22;10050;55.492;13.506;2023-06-10T13:03:03;21.80;99.90
19781;DHT22;10050;55.492;13.506;2023-06-10T13:05:31;21.90;99.90
19781;DHT22;10050;55.492;13.506;2023-06-10T13:07:57;22.00;99.90
19781;DHT22;10050;55.492;13.506;2023-06-10T13:10:23;22.20;99.90
19781;DHT22;10050;55.492;13.506;2023-06-10T13:12:50;22.10;99.90
19781;DHT22;10050;55.492;13.506;2023-06-10T13:15:16;22.00;99.80
19781;DHT22;10050;55.492;13.506;2023-06-10T13:17:45;22.00;99.90
19781;DHT22;10050;55.492;13.506;2023-06-10T13:20:14;22.20;99.90
19781;DHT22;10050;55.492;13.506;2023-06-10T13:22:41;21.90;99.70
19781;DHT22;10050;55.492;13.506;2023-06-10T13:25:07;21.70;99.90
19781;DHT22;10050;55.492;13.506;2023-06-10T13:27:35;21.80;99.90
19781;DHT22;10050;55.492;13.506;2023-06-10T13:30:00;21.70;99.90
19781;DHT22;10050;55.492;13.506;2023-06-10T13:32:26;21.80;99.90
19781;DHT22;10050;55.492;13.506;2023-06-10T13:34:52;21.80;99.90
19781;DHT22;10050;55.492;13.506;2023-06-10T13:37:19;21.60;99.90
19781;DHT22;10050;55.492;13.506;2023-06-10T13:39:45;21.80;99.90
19781;DHT22;10050;55.492;13.506;2023-06-10T13:42:19;21.70;99.90
19781;DHT22;10050;55.492;13.506;2023-06-10T13:44:46;21.50;99.50
19781;DHT22;10050;55.492;13.506;2023-06-10T13:47:13;21.50;99.90
19781;DHT22;10050;55.492;13.506;2023-06-10T13:49:38;21.50;99.90
19781;DHT22;10050;55.492;13.506;2023-06-10T13:52:06;21.40;99.70
19781;DHT22;10050;55.492;13.506;2023-06-10T13:54:32;21.40;99.60
19781;DHT22;10050;55.492;13.506;2023-06-10T13:56:58;21.40;99.80
19781;DHT22;10050;55.492;13.506;2023-06-10T13:59:24;21.40;99.90
19781;DHT22;10050;55.492;13.506;2023-06-10T14:01:50;21.60;99.90
19781;DHT22;10050;55.492;13.506;2023-06-10T14:04:15;21.20;99.50
19781;DHT22;10050;55.492;13.506;2023-06-10T14:06:44;21.10;99.90
19781;DHT22;10050;55.492;13.506;2023-06-10T14:09:12;21.20;99.90
19781;DHT22;10050;55.492;13.506;2023-06-10T14:11:38;21.20;99.90
19781;DHT22;10050;55.492;13.506;2023-06-10T14:14:06;21.30;99.90
19781;DHT22;10050;55.492;13.506;2023-06-10T14:16:32;21.20;99.60
19781;DHT22;10050;55.492;13.506;2023-06-10T14:18:57;21.00;99.90
19781;DHT22;10050;55.492;13.506;2023-06-10T14:21:23;21.10;99.90
19781;DHT22;10050;55.492;13.506;2023-06-10T14:23:48;21.00;99.90
19781;DHT22;10050;55.492;13.506;2023-06-10T14:26:17;20.90;99.90
19781;DHT22;10050;55.492;13.506;2023-06-10T14:28:42;20.90;99.90
19781;DHT22;10050;55.492;13.506;2023-06-10T14:31:08;20.70;99.90
19781;DHT22;10050;55.492;13.506;2023-06-10T14:33:34;20.50;99.90
19781;DHT22;10050;55.492;13.506;2023-06-10T14:35:59;20.50;99.90
19781;DHT22;10050;55.492;13.506;2023-06-10T14:38:25;20.40;99.90
19781;DHT22;10050;55.492;13.506;2023-06-10T14:40:51;20.30;99.90
19781;DHT22;10050;55.492;13.506;2023-06-10T14:43:18;20.50;99.90
19781;DHT22;10050;55.492;13.506;2023-06-10T14:45:43;20.50;99.90
19781;DHT22;10050;55.492;13.506;2023-06-10T14:48:10;20.70;99.90
19781;DHT22;10050;55.492;13.506;2023-06-10T14:50:37;20.60;99.90
19781;DHT22;10050;55.492;13.506;2023-06-10T14:53:03;20.40;99.90
19781;DHT22;10050;55.492;13.506;2023-06-10T14:55:28;20.10;99.40
19781;DHT22;10050;55.492;13.506;2023-06-10T14:57:54;20.20;99.90
19781;DHT22;10050;55.492;13.506;2023-06-10T15:00:21;20.20;99.90
19781;DHT22;10050;55.492;13.506;2023-06-10T15:02:49;20.10;99.60
19781;DHT22;10050;55.492;13.506;2023-06-10T15:05:16;20.10;99.50
19781;DHT22;10050;55.492;13.506;2023-06-10T15:07:42;19.90;99.20
19781;DHT22;10050;55.492;13.506;2023-06-10T15:10:08;19.80;99.90
19781;DHT22;10050;55.492;13.506;2023-06-10T15:12:35;19.70;99.90
19781;DHT22;10050;55.492;13.506;2023-06-10T15:15:01;19.70;99.90
19781;DHT22;10050;55.492;13.506;2023-06-10T15:17:27;19.70;99.80
19781;DHT22;10050;55.492;13.506;2023-06-10T15:19:53;19.60;99.90
19781;DHT22;10050;55.492;13.506;2023-06-10T15:22:18;19.70;99.90
19781;DHT22;10050;55.492;13.506;2023-06-10T15:24:44;19.60;98.90
19781;DHT22;10050;55.492;13.506;2023-06-10T15:27:10;19.50;99.70
19781;DHT22;10050;55.492;13.506;2023-06-10T15:29:36;19.40;99.90
19781;DHT22;10050;55.492;13.506;2023-06-10T15:32:01;19.40;99.90
19781;DHT22;10050;55.492;13.506;2023-06-10T15:34:27;19.40;99.90
19781;DHT22;10050;55.492;13.506;2023-06-10T15:36:52;19.40;99.90
19781;DHT22;10050;55.492;13.506;2023-06-10T15:39:18;19.40;99.40
19781;DHT22;10050;55.492;13.506;2023-06-10T15:41:44;19.20;99.60